createdAt,value
2023-07-01T00:00:21.908Z,99272.69
2023-07-01T00:02:58.189Z,99269.22
2023-07-01T00:05:26.813Z,99254.28
2023-07-01T00:07:56.720Z,99251.66
2023-07-01T00:10:27.018Z,99258.69
2023-07-01T00:12:55.956Z,99253.44
2023-07-01T00:15:24.694Z,99238.53
2023-07-01T00:17:55.569Z,99237.69
2023-07-01T00:20:27.794Z,99242.97
2023-07-01T00:22:57.600Z,99243.84
2023-07-01T00:25:26.420Z,99226.34
2023-07-01T00:27:54.875Z,99224.59
2023-07-01T00:30:23.353Z,99232.47
2023-07-01T00:32:51.816Z,99229.84
2023-07-01T00:35:20.402Z,99228.09
2023-07-01T00:37:48.809Z,99224.59
2023-07-01T00:40:19.252Z,99218.44
2023-07-01T00:42:48.240Z,99217.56
2023-07-01T00:45:17.090Z,99216.69
2023-07-01T00:47:45.671Z,99205.28
2023-07-01T00:50:15.562Z,99213.19
2023-07-01T00:52:45.460Z,99202.69
2023-07-01T00:55:14.174Z,99207.09
2023-07-01T00:57:44.348Z,99204.50
2023-07-01T01:00:15.507Z,99194.84
2023-07-01T01:02:54.949Z,99193.97
2023-07-01T01:05:33.388Z,99193.09
2023-07-01T01:08:09.416Z,99189.59
2023-07-01T01:10:42.379Z,99179.06
2023-07-01T01:13:14.858Z,99183.44
2023-07-01T01:15:44.112Z,99179.94
2023-07-01T01:18:18.196Z,99173.78
2023-07-01T01:20:48.213Z,99170.31
2023-07-01T01:23:26.020Z,99160.69
2023-07-01T01:26:06.300Z,99162.44
2023-07-01T01:28:38.149Z,99160.69
2023-07-01T01:31:07.168Z,99153.66
2023-07-01T01:33:36.763Z,99154.53
2023-07-01T01:36:23.868Z,99149.28
2023-07-01T01:38:53.207Z,99141.38
2023-07-01T01:41:27.659Z,99139.66
2023-07-01T01:44:03.944Z,99136.13
2023-07-01T01:46:34.768Z,99129.13
2023-07-01T01:49:05.636Z,99132.66
2023-07-01T01:51:35.164Z,99123.00
2023-07-01T01:54:06.904Z,99123.00
2023-07-01T01:56:36.908Z,99115.13
2023-07-01T01:59:07.201Z,99118.66
2023-07-01T02:01:36.952Z,99119.56
2023-07-01T02:04:05.988Z,99117.78
2023-07-01T02:06:35.453Z,99107.28
2023-07-01T02:09:06.211Z,99102.00
2023-07-01T02:11:34.608Z,99105.50
2023-07-01T02:14:03.261Z,99102.94
2023-07-01T02:16:37.532Z,99100.28
2023-07-01T02:19:06.731Z,99098.53
2023-07-01T02:21:37.242Z,99087.16
2023-07-01T02:24:06.634Z,99082.81
2023-07-01T02:26:35.253Z,99076.66
2023-07-01T02:29:03.804Z,99073.16
2023-07-01T02:31:33.701Z,99068.78
2023-07-01T02:34:03.883Z,99073.16
2023-07-01T02:36:32.490Z,99069.66
2023-07-01T02:39:01.069Z,99073.19
2023-07-01T02:41:29.541Z,99080.19
2023-07-01T02:43:58.363Z,99080.22
2023-07-01T02:46:28.620Z,99071.47
2023-07-01T02:48:59.143Z,99073.22
2023-07-01T02:51:27.610Z,99064.47
2023-07-01T02:53:56.095Z,99063.63
2023-07-01T02:56:25.140Z,99069.75
2023-07-01T02:58:53.611Z,99062.78
2023-07-01T03:01:22.012Z,99061.91
2023-07-01T03:03:51.219Z,99061.91
2023-07-01T03:06:21.264Z,99061.03
2023-07-01T03:08:49.809Z,99064.53
2023-07-01T03:11:18.351Z,99059.28
2023-07-01T03:13:46.722Z,99071.56
2023-07-01T03:16:15.370Z,99064.53
2023-07-01T03:18:44.347Z,99060.16
2023-07-01T03:21:12.736Z,99054.00
2023-07-01T03:23:42.659Z,99055.78
2023-07-01T03:26:11.049Z,99054.03
2023-07-01T03:28:39.467Z,99058.44
2023-07-01T03:31:09.171Z,99052.28
2023-07-01T03:33:37.759Z,99048.78
2023-07-01T03:36:07.425Z,99045.31
2023-07-01T03:38:35.855Z,99033.91
2023-07-01T03:41:07.761Z,99044.47
2023-07-01T03:43:36.276Z,99036.59
2023-07-01T03:46:05.152Z,99029.59
2023-07-01T03:48:33.632Z,99033.13
2023-07-01T03:51:02.534Z,99027.00
2023-07-01T03:53:31.187Z,99028.81
2023-07-01T03:55:59.599Z,99028.81
2023-07-01T03:58:29.424Z,99029.72
2023-07-01T04:00:57.979Z,99010.44
2023-07-01T04:03:26.833Z,99026.22
2023-07-01T04:05:55.423Z,99011.31
2023-07-01T04:08:23.873Z,99017.50
2023-07-01T04:10:52.354Z,99007.84
2023-07-01T04:13:20.870Z,99010.50
2023-07-01T04:15:50.717Z,99005.22
2023-07-01T04:18:19.218Z,99006.09
2023-07-01T04:20:47.814Z,99006.97
2023-07-01T04:23:16.433Z,98998.22
2023-07-01T04:25:45.486Z,98987.75
2023-07-01T04:28:13.855Z,98988.63
2023-07-01T04:30:42.320Z,98990.38
2023-07-01T04:33:12.633Z,98988.63
2023-07-01T04:35:41.450Z,98989.50
2023-07-01T04:38:09.947Z,98993.88
2023-07-01T04:40:38.400Z,98979.88
2023-07-01T04:43:07.022Z,98977.25
2023-07-01T04:45:35.949Z,98982.44
2023-07-01T04:48:05.776Z,98973.72
2023-07-01T04:50:35.645Z,98990.34
2023-07-01T04:53:04.034Z,98980.75
2023-07-01T04:55:32.434Z,98986.00
2023-07-01T04:58:00.760Z,98978.94
2023-07-01T05:00:29.343Z,98992.97
2023-07-01T05:02:57.927Z,98976.31
2023-07-01T05:05:27.976Z,98965.78
2023-07-01T05:07:58.373Z,98964.03
2023-07-01T05:10:26.916Z,98959.72
2023-07-01T05:12:55.408Z,98962.34
2023-07-01T05:15:24.039Z,98949.19
2023-07-01T05:17:52.501Z,98946.56
2023-07-01T05:20:21.259Z,98932.59
2023-07-01T05:22:49.655Z,98947.50
2023-07-01T05:25:19.437Z,98936.09
2023-07-01T05:27:47.958Z,98928.22
2023-07-01T05:30:16.593Z,98932.59
2023-07-01T05:32:45.006Z,98921.16
2023-07-01T05:35:13.545Z,98923.78
2023-07-01T05:37:41.981Z,98925.53
2023-07-01T05:40:13.158Z,98935.19
2023-07-01T05:42:43.389Z,98930.78
2023-07-01T05:45:12.448Z,98929.91
2023-07-01T05:47:41.100Z,98925.53
2023-07-01T05:50:10.643Z,98929.03
2023-07-01T05:52:39.054Z,98936.06
2023-07-01T05:55:09.528Z,98936.88
2023-07-01T05:57:38.196Z,98921.97
2023-07-01T06:00:10.697Z,98922.84
2023-07-01T06:02:42.234Z,98929.00
2023-07-01T06:05:11.341Z,98922.00
2023-07-01T06:07:40.136Z,98924.63
2023-07-01T06:10:09.884Z,98921.97
2023-07-01T06:12:38.366Z,98923.72
2023-07-01T06:15:09.541Z,98922.81
2023-07-01T06:17:38.270Z,98917.53
2023-07-01T06:20:08.488Z,98916.66
2023-07-01T06:22:37.173Z,98921.91
2023-07-01T06:25:06.428Z,98920.16
2023-07-01T06:27:34.817Z,98927.19
2023-07-01T06:30:04.469Z,98915.78
2023-07-01T06:32:35.279Z,98928.94
2023-07-01T06:35:04.080Z,98927.22
2023-07-01T06:37:32.497Z,98930.75
2023-07-01T06:40:00.900Z,98928.13
2023-07-01T06:42:29.590Z,98927.25
2023-07-01T06:44:57.952Z,98922.03
2023-07-01T06:47:26.337Z,98910.69
2023-07-01T06:49:57.058Z,98924.75
2023-07-01T06:52:25.716Z,98930.06
2023-07-01T06:54:54.191Z,98936.22
2023-07-01T06:57:22.626Z,98929.19
2023-07-01T06:59:51.076Z,98937.97
2023-07-01T07:02:21.836Z,98924.88
2023-07-01T07:04:52.913Z,98924.88
2023-07-01T07:07:23.003Z,98924.03
2023-07-01T07:09:51.335Z,98917.94
2023-07-01T07:12:19.889Z,98924.03
2023-07-01T07:14:48.564Z,98924.03
2023-07-01T07:17:17.031Z,98919.72
2023-07-01T07:19:45.679Z,98924.13
2023-07-01T07:22:14.228Z,98932.00
2023-07-01T07:24:44.696Z,98928.50
2023-07-01T07:27:13.210Z,98927.66
2023-07-01T07:29:41.701Z,98925.91
2023-07-01T07:32:11.021Z,98932.97
2023-07-01T07:34:40.208Z,98926.84
2023-07-01T07:37:08.843Z,98927.75
2023-07-01T07:39:37.265Z,98921.66
2023-07-01T07:42:08.137Z,98926.91
2023-07-01T07:44:38.225Z,98926.91
2023-07-01T07:47:07.885Z,98927.78
2023-07-01T07:49:36.743Z,98932.19
2023-07-01T07:52:05.961Z,98925.19
2023-07-01T07:54:34.413Z,98934.81
2023-07-01T07:57:02.945Z,98927.81
2023-07-01T07:59:32.688Z,98924.31
2023-07-01T08:02:02.358Z,98926.94
2023-07-01T08:04:30.986Z,98927.78
2023-07-01T08:07:00.717Z,98923.41
2023-07-01T08:09:29.954Z,98926.03
2023-07-01T08:12:00.073Z,98912.03
2023-07-01T08:14:28.732Z,98910.28
2023-07-01T08:17:01.697Z,98928.66
2023-07-01T08:19:30.199Z,98916.41
2023-07-01T08:21:58.656Z,98912.91
2023-07-01T08:24:27.822Z,98911.16
2023-07-01T08:26:56.994Z,98899.78
2023-07-01T08:29:25.439Z,98898.91
2023-07-01T08:31:53.866Z,98909.38
2023-07-01T08:34:23.802Z,98907.63
2023-07-01T08:36:52.213Z,98911.06
2023-07-01T08:39:20.670Z,98906.69
2023-07-01T08:41:54.127Z,98911.94
2023-07-01T08:44:24.769Z,98902.31
2023-07-01T08:46:55.466Z,98907.56
2023-07-01T08:49:26.156Z,98909.31
2023-07-01T08:52:06.073Z,98909.31
2023-07-01T08:54:36.704Z,98908.44
2023-07-01T08:57:05.870Z,98897.94
2023-07-01T08:59:34.650Z,98900.56
2023-07-01T09:02:03.530Z,98904.94
2023-07-01T09:04:33.287Z,98905.78
2023-07-01T09:07:01.952Z,98897.91
2023-07-01T09:09:30.358Z,98898.78
2023-07-01T09:11:58.861Z,98893.53
2023-07-01T09:14:27.285Z,98905.75
2023-07-01T09:16:55.981Z,98897.84
2023-07-01T09:19:24.640Z,98893.47
2023-07-01T09:22:10.648Z,98896.97
2023-07-01T09:24:40.334Z,98901.34
2023-07-01T09:27:10.172Z,98889.09
2023-07-01T09:29:41.667Z,98891.72
2023-07-01T09:32:11.933Z,98889.97
2023-07-01T09:34:58.391Z,98889.09
2023-07-01T09:37:29.651Z,98900.50
2023-07-01T09:39:58.821Z,98893.53
2023-07-01T09:42:27.481Z,98879.50
2023-07-01T09:45:10.989Z,98888.28
2023-07-01T09:47:39.682Z,98882.16
2023-07-01T09:50:09.667Z,98872.50
2023-07-01T09:52:40.951Z,98875.09
2023-07-01T09:55:10.035Z,98870.72
2023-07-01T09:57:39.313Z,98875.91
2023-07-01T10:00:12.836Z,98876.75
2023-07-01T10:02:42.143Z,98881.13
2023-07-01T10:05:11.167Z,98879.38
2023-07-01T10:07:41.345Z,98881.97
2023-07-01T10:10:14.340Z,98878.47
2023-07-01T10:12:44.179Z,98874.06
2023-07-01T10:15:14.849Z,98862.69
2023-07-01T10:17:48.128Z,98873.19
2023-07-01T10:20:31.274Z,98865.31
2023-07-01T10:23:02.280Z,98868.81
2023-07-01T10:25:32.566Z,98857.38
2023-07-01T10:28:10.370Z,98867.91
2023-07-01T10:31:15.143Z,98868.81
2023-07-01T10:33:59.638Z,98862.69
2023-07-01T10:36:28.239Z,98867.06
2023-07-01T10:39:35.489Z,98861.81
2023-07-01T10:42:04.094Z,98858.31
2023-07-01T10:44:32.670Z,98861.81
2023-07-01T10:47:20.091Z,98860.06
2023-07-01T10:50:09.188Z,98847.78
2023-07-01T10:53:03.808Z,98856.56
2023-07-01T10:55:45.453Z,98860.06
2023-07-01T10:58:27.382Z,98846.91
2023-07-01T11:00:57.191Z,98851.31
2023-07-01T11:03:57.273Z,98861.81
2023-07-01T11:06:26.205Z,98846.09
2023-07-01T11:08:57.766Z,98850.47
2023-07-01T11:11:30.475Z,98845.22
2023-07-01T11:14:05.940Z,98840.78
2023-07-01T11:16:35.306Z,98837.28
2023-07-01T11:19:06.576Z,98841.63
2023-07-01T11:21:35.186Z,98847.75
2023-07-01T11:24:05.714Z,98837.22
2023-07-01T11:26:37.079Z,98847.78
2023-07-01T11:29:11.552Z,98850.34
2023-07-01T11:31:41.065Z,98843.34
2023-07-01T11:34:11.630Z,98840.72
2023-07-01T11:36:45.095Z,98840.72
2023-07-01T11:39:15.265Z,98844.22
2023-07-01T11:41:47.212Z,98851.22
2023-07-01T11:44:17.960Z,98849.47
2023-07-01T11:46:47.433Z,98842.47
2023-07-01T11:49:19.167Z,98845.97
2023-07-01T11:51:49.700Z,98845.09
2023-07-01T11:54:20.630Z,98852.97
2023-07-01T11:56:51.897Z,98842.47
2023-07-01T11:59:36.474Z,98840.72
2023-07-01T12:02:05.716Z,98844.22
2023-07-01T12:04:36.565Z,98844.22
2023-07-01T12:07:10.349Z,98847.78
2023-07-01T12:09:42.181Z,98842.50
2023-07-01T12:12:15.166Z,98845.13
2023-07-01T12:14:43.772Z,98845.13
2023-07-01T12:17:29.659Z,98838.13
2023-07-01T12:19:59.866Z,98841.63
2023-07-01T12:22:29.618Z,98845.13
2023-07-01T12:25:02.851Z,98838.13
2023-07-01T12:27:35.041Z,98846.00
2023-07-01T12:30:05.350Z,98848.66
2023-07-01T12:32:34.201Z,98844.25
2023-07-01T12:35:02.655Z,98840.78
2023-07-01T12:37:31.595Z,98846.03
2023-07-01T12:40:00.500Z,98838.16
2023-07-01T12:42:29.140Z,98849.53
2023-07-01T12:44:59.101Z,98841.66
2023-07-01T12:47:30.012Z,98840.78
2023-07-01T12:49:58.844Z,98832.94
2023-07-01T12:52:27.706Z,98844.28
2023-07-01T12:54:56.805Z,98833.78
2023-07-01T12:57:25.528Z,98843.41
2023-07-01T12:59:55.822Z,98841.63
2023-07-01T13:02:26.365Z,98840.78
2023-07-01T13:05:02.278Z,98842.53
2023-07-01T13:07:32.693Z,98839.00
2023-07-01T13:10:02.372Z,98839.88
2023-07-01T13:12:31.052Z,98835.47
2023-07-01T13:15:00.353Z,98838.13
2023-07-01T13:17:38.710Z,98838.13
2023-07-01T13:20:09.423Z,98832.03
2023-07-01T13:22:38.818Z,98832.91
2023-07-01T13:25:08.670Z,98832.91
2023-07-01T13:27:37.147Z,98832.84
2023-07-01T13:30:09.366Z,98832.00
2023-07-01T13:32:41.030Z,98824.97
2023-07-01T13:35:09.676Z,98824.91
2023-07-01T13:37:38.071Z,98834.53
2023-07-01T13:40:08.317Z,98827.44
2023-07-01T13:42:40.134Z,98824.75
2023-07-01T13:45:23.572Z,98826.47
2023-07-01T13:47:54.089Z,98818.56
2023-07-01T13:50:25.791Z,98823.78
2023-07-01T13:53:02.711Z,98807.06
2023-07-01T13:55:32.970Z,98809.69
2023-07-01T13:58:01.667Z,98812.19
2023-07-01T14:00:40.326Z,98810.31
2023-07-01T14:03:19.407Z,98801.47
2023-07-01T14:05:48.222Z,98789.06
2023-07-01T14:08:17.900Z,98802.06
2023-07-01T14:10:46.422Z,98795.84
2023-07-01T14:13:15.823Z,98799.28
2023-07-01T14:15:46.555Z,98794.81
2023-07-01T14:18:27.720Z,98790.38
2023-07-01T14:21:02.855Z,98789.44
2023-07-01T14:23:36.697Z,98779.72
2023-07-01T14:26:08.321Z,98782.34
2023-07-01T14:28:37.497Z,98771.75
2023-07-01T14:31:11.027Z,98775.25
2023-07-01T14:33:42.986Z,98785.81
2023-07-01T14:36:13.690Z,98769.94
2023-07-01T14:38:45.596Z,98771.59
2023-07-01T14:41:22.776Z,98780.28
2023-07-01T14:43:57.332Z,98781.94
2023-07-01T14:46:29.394Z,98780.19
2023-07-01T14:48:59.602Z,98778.44
2023-07-01T14:51:28.228Z,98778.41
2023-07-01T14:53:57.951Z,98782.81
2023-07-01T14:56:28.460Z,98777.56
2023-07-01T14:58:57.297Z,98777.53
2023-07-01T15:01:27.851Z,98780.13
2023-07-01T15:03:56.619Z,98771.31
2023-07-01T15:06:26.750Z,98765.97
2023-07-01T15:08:55.227Z,98763.31
2023-07-01T15:11:23.953Z,98764.09
2023-07-01T15:13:52.422Z,98764.00
2023-07-01T15:16:20.994Z,98762.16
2023-07-01T15:18:49.472Z,98775.25
2023-07-01T15:21:17.866Z,98777.78
2023-07-01T15:23:48.297Z,98765.47
2023-07-01T15:26:17.193Z,98768.06
2023-07-01T15:28:45.857Z,98770.66
2023-07-01T15:31:14.300Z,98768.03
2023-07-01T15:33:42.781Z,98761.00
2023-07-01T15:36:11.177Z,98768.94
2023-07-01T15:38:40.089Z,98762.84
2023-07-01T15:41:10.328Z,98769.06
2023-07-01T15:43:42.447Z,98769.97
2023-07-01T15:46:11.097Z,98783.22
2023-07-01T15:48:39.511Z,98784.16
2023-07-01T15:51:08.261Z,98784.28
2023-07-01T15:53:36.677Z,98800.19
2023-07-01T15:56:06.628Z,98800.28
2023-07-01T15:58:36.642Z,98798.56
2023-07-01T16:01:05.463Z,98799.53
2023-07-01T16:03:34.207Z,98795.13
2023-07-01T16:06:04.089Z,98816.19
2023-07-01T16:08:32.804Z,98803.97
2023-07-01T16:11:01.416Z,98804.88
2023-07-01T16:13:41.440Z,98806.59
2023-07-01T16:16:16.056Z,98811.00
2023-07-01T16:18:47.059Z,98805.72
2023-07-01T16:21:17.178Z,98816.28
2023-07-01T16:23:50.452Z,98803.97
2023-07-01T16:26:31.215Z,98813.63
2023-07-01T16:29:01.269Z,98814.47
2023-07-01T16:31:31.461Z,98821.47
2023-07-01T16:34:01.587Z,98824.09
2023-07-01T16:36:32.644Z,98831.91
2023-07-01T16:39:05.800Z,98829.19
2023-07-01T16:41:35.090Z,98827.44
2023-07-01T16:44:05.493Z,98829.19
2023-07-01T16:46:37.640Z,98823.88
2023-07-01T16:49:08.494Z,98819.53
2023-07-01T16:51:38.335Z,98837.16
2023-07-01T16:54:17.015Z,98831.03
2023-07-01T16:56:49.906Z,98831.97
2023-07-01T16:59:46.634Z,98838.16
2023-07-01T17:03:12.863Z,98835.66
2023-07-01T17:05:41.691Z,98837.44
2023-07-01T17:08:22.986Z,98839.19
2023-07-01T17:10:51.954Z,98843.66
2023-07-01T17:13:34.013Z,98843.66
2023-07-01T17:16:05.601Z,98851.63
2023-07-01T17:18:34.828Z,98843.72
2023-07-01T17:21:03.212Z,98865.72
2023-07-01T17:23:31.670Z,98851.69
2023-07-01T17:26:00.054Z,98861.34
2023-07-01T17:28:28.394Z,98869.28
2023-07-01T17:30:56.758Z,98879.81
2023-07-01T17:33:26.534Z,98883.28
2023-07-01T17:35:55.068Z,98889.41
2023-07-01T17:38:23.465Z,98881.53
2023-07-01T17:40:51.815Z,98881.53
2023-07-01T17:43:20.324Z,98891.22
2023-07-01T17:45:49.057Z,98893.00
2023-07-01T17:48:17.895Z,98898.28
2023-07-01T17:50:47.977Z,98907.09
2023-07-01T17:53:16.571Z,98904.47
2023-07-01T17:55:45.181Z,98908.88
2023-07-01T17:58:13.817Z,98908.88
2023-07-01T18:00:42.266Z,98916.81
2023-07-01T18:03:10.902Z,98910.69
2023-07-01T18:05:39.399Z,98914.19
2023-07-01T18:08:10.284Z,98922.09
2023-07-01T18:10:40.500Z,98918.66
2023-07-01T18:13:08.993Z,98932.69
2023-07-01T18:15:37.408Z,98927.41
2023-07-01T18:18:05.957Z,98939.72
2023-07-01T18:20:45.332Z,98930.13
2023-07-01T18:23:23.880Z,98931.00
2023-07-01T18:25:52.353Z,98939.84
2023-07-01T18:28:20.959Z,98938.09
2023-07-01T18:30:49.600Z,98943.38
2023-07-01T18:33:18.746Z,98941.66
2023-07-01T18:35:47.545Z,98934.69
2023-07-01T18:38:16.193Z,98939.97
2023-07-01T18:40:46.071Z,98940.91
2023-07-01T18:43:14.587Z,98941.81
2023-07-01T18:48:11.852Z,98941.81
2023-07-01T18:50:40.204Z,98948.81
2023-07-01T18:53:08.774Z,98952.38
2023-07-01T18:55:38.331Z,98942.75
2023-07-01T18:58:09.714Z,98944.50
2023-07-01T19:00:43.841Z,98954.19
2023-07-01T19:03:12.839Z,98951.56
2023-07-01T19:05:41.702Z,98949.81
2023-07-01T19:08:11.139Z,98956.84
2023-07-01T19:10:40.828Z,98950.69
2023-07-01T19:13:12.256Z,98947.22
2023-07-01T19:15:41.668Z,98947.22
2023-07-01T19:18:10.298Z,98956.00
2023-07-01T19:20:43.762Z,98956.00
2023-07-01T19:23:13.762Z,98953.38
2023-07-01T19:25:43.283Z,98968.28
2023-07-01T19:28:16.543Z,98966.53
2023-07-01T19:30:45.434Z,98970.94
2023-07-01T19:33:19.462Z,98975.28
2023-07-01T19:35:50.940Z,98975.28
2023-07-01T19:38:19.754Z,98974.44
2023-07-01T19:40:48.551Z,98979.72
2023-07-01T19:43:18.819Z,98976.22
2023-07-01T19:45:48.277Z,98986.72
2023-07-01T19:48:17.212Z,98984.16
2023-07-01T19:50:45.611Z,98986.78
2023-07-01T19:53:15.426Z,98998.19
2023-07-01T19:55:44.395Z,98999.94
2023-07-01T19:58:12.987Z,99001.69
2023-07-01T20:00:42.796Z,98999.00
2023-07-01T20:03:11.380Z,98999.91
2023-07-01T20:05:44.445Z,99010.41
2023-07-01T20:08:14.310Z,99024.44
2023-07-01T20:10:42.764Z,99028.84
2023-07-01T20:13:11.308Z,99032.34
2023-07-01T20:15:40.821Z,99024.47
2023-07-01T20:18:11.163Z,99035.91
2023-07-01T20:20:39.743Z,99032.41
2023-07-01T20:23:08.407Z,99039.41
2023-07-01T20:25:36.857Z,99028.06
2023-07-01T20:28:06.552Z,99040.38
2023-07-01T20:30:35.061Z,99042.13
2023-07-01T20:33:03.741Z,99041.28
2023-07-01T20:35:33.700Z,99040.41
2023-07-01T20:38:02.256Z,99036.91
2023-07-01T20:40:32.550Z,99046.56
2023-07-01T20:43:00.982Z,99055.31
2023-07-01T20:45:29.676Z,99057.09
2023-07-01T20:47:58.221Z,99054.47
2023-07-01T20:50:26.794Z,99064.97
2023-07-01T20:52:56.634Z,99060.63
2023-07-01T20:55:25.194Z,99069.34
2023-07-01T20:57:53.525Z,99071.97
2023-07-01T21:00:22.271Z,99079.03
2023-07-01T21:02:51.088Z,99080.78
2023-07-01T21:05:19.559Z,99077.28
2023-07-01T21:07:47.931Z,99084.31
2023-07-01T21:10:17.950Z,99081.69
2023-07-01T21:12:46.422Z,99084.34
2023-07-01T21:15:14.869Z,99091.38
2023-07-01T21:17:43.698Z,99084.38
2023-07-01T21:20:12.842Z,99097.50
2023-07-01T21:22:41.467Z,99094.88
2023-07-01T21:25:12.519Z,99095.78
2023-07-01T21:28:03.194Z,99096.66
2023-07-01T21:30:39.792Z,99097.53
2023-07-01T21:33:09.532Z,99100.16
2023-07-01T21:35:43.398Z,99086.16
2023-07-01T21:38:11.823Z,99094.91
2023-07-01T21:40:45.105Z,99094.91
2023-07-01T21:43:19.706Z,99101.06
2023-07-01T21:45:48.872Z,99094.94
2023-07-01T21:48:22.697Z,99100.22
2023-07-01T21:51:00.274Z,99109.81
2023-07-01T21:53:32.452Z,99108.09
2023-07-01T21:56:02.868Z,99105.47
2023-07-01T21:58:35.981Z,99104.59
2023-07-01T22:01:08.373Z,99102.84
2023-07-01T22:03:37.885Z,99102.84
2023-07-01T22:06:11.691Z,99105.47
2023-07-01T22:08:42.694Z,99106.38
2023-07-01T22:11:12.417Z,99108.13
2023-07-01T22:13:44.325Z,99112.50
2023-07-01T22:16:14.658Z,99112.53
2023-07-01T22:18:43.653Z,99109.03
2023-07-01T22:21:12.596Z,99115.16
2023-07-01T22:23:41.352Z,99110.78
2023-07-01T22:26:10.131Z,99112.53
2023-07-01T22:28:42.580Z,99113.38
2023-07-01T22:31:11.031Z,99123.03
2023-07-01T22:33:39.808Z,99122.19
2023-07-01T22:36:08.845Z,99122.16
2023-07-01T22:38:37.248Z,99123.91
2023-07-01T22:41:06.343Z,99123.91
2023-07-01T22:43:34.737Z,99126.53
2023-07-01T22:46:04.574Z,99127.41
2023-07-01T22:48:33.113Z,99130.03
2023-07-01T22:51:01.727Z,99130.03
2023-07-01T22:53:30.189Z,99142.25
2023-07-01T22:55:59.795Z,99129.16
2023-07-01T22:58:28.530Z,99133.53
2023-07-01T23:00:57.197Z,99130.03
2023-07-01T23:03:27.490Z,99130.91
2023-07-01T23:05:56.000Z,99138.75
2023-07-01T23:08:24.915Z,99137.00
2023-07-01T23:10:53.376Z,99130.91
2023-07-01T23:13:21.860Z,99138.75
2023-07-01T23:15:51.326Z,99144.03
2023-07-01T23:18:19.859Z,99142.25
2023-07-01T23:20:50.274Z,99136.13
2023-07-01T23:23:19.217Z,99128.28
2023-07-01T23:25:47.686Z,99119.53
2023-07-01T23:28:16.903Z,99123.91
2023-07-01T23:30:45.515Z,99127.41
2023-07-01T23:33:14.352Z,99124.78
2023-07-01T23:35:43.212Z,99129.16
2023-07-01T23:38:13.053Z,99123.03
2023-07-01T23:40:41.469Z,99130.03
2023-07-01T23:43:09.980Z,99118.66
2023-07-01T23:45:38.371Z,99121.28
2023-07-01T23:48:08.130Z,99122.16
2023-07-01T23:50:36.619Z,99116.94
2023-07-01T23:53:05.091Z,99114.31
2023-07-01T23:55:34.842Z,99116.06
2023-07-01T23:58:03.212Z,99112.53
